Time,TemperatureF,DewpointF,PressureIn,WindDirection,WindDirectionDegrees,WindSpeedMPH,WindSpeedGustMPH,Humidity,HourlyPrecipIn,Conditions,Clouds,dailyrainin,SoftwareType,DateUTC
2013-09-27 00:02:00,54.6,53.0,30.10,NNE,19,0.0,0.0,94,0.00,,,0.00,weatherlink.com 1.10,2013-09-27 05:02:00,
2013-09-27 00:17:00,54.5,53.0,30.10,NNE,19,0.0,0.0,94,0.00,,,0.00,weatherlink.com 1.10,2013-09-27 05:17:00,
2013-09-27 00:32:00,54.3,53.0,30.10,NNE,19,0.0,0.0,94,0.00,,,0.00,weatherlink.com 1.10,2013-09-27 05:32:00,
2013-09-27 00:47:00,54.3,53.0,30.10,NNE,19,0.0,0.0,94,0.00,,,0.00,weatherlink.com 1.10,2013-09-27 05:47:00,
2013-09-27 01:02:00,54.1,53.0,30.11,NNE,19,0.0,0.0,94,0.00,,,0.00,weatherlink.com 1.10,2013-09-27 06:02:00,
2013-09-27 01:17:00,53.8,52.0,30.11,NNE,19,0.0,0.0,94,0.00,,,0.00,weatherlink.com 1.10,2013-09-27 06:17:00,
2013-09-27 01:32:00,53.9,52.0,30.11,NNE,19,0.0,0.0,94,0.00,,,0.00,weatherlink.com 1.10,2013-09-27 06:32:00,
2013-09-27 01:47:00,54.4,53.0,30.11,NNE,19,0.0,0.0,95,0.00,,,0.00,weatherlink.com 1.10,2013-09-27 06:47:00,
2013-09-27 02:02:00,54.6,53.0,30.11,NNE,19,0.0,0.0,95,0.00,,,0.00,weatherlink.com 1.10,2013-09-27 07:02:00,
2013-09-27 02:17:00,54.4,53.0,30.11,NNE,19,0.0,0.0,94,0.00,,,0.00,weatherlink.com 1.10,2013-09-27 07:17:00,
2013-09-27 02:32:00,54.1,53.0,30.11,NNE,19,0.0,0.0,94,0.00,,,0.00,weatherlink.com 1.10,2013-09-27 07:32:00,
2013-09-27 02:47:00,53.8,52.0,30.11,NNE,19,0.0,0.0,94,0.00,,,0.00,weatherlink.com 1.10,2013-09-27 07:47:00,
2013-09-27 03:02:00,52.8,51.0,30.11,NNE,19,0.0,0.0,92,0.00,,,0.00,weatherlink.com 1.10,2013-09-27 08:02:00,
2013-09-27 03:17:00,51.6,49.0,30.11,NNE,19,0.0,0.0,92,0.00,,,0.00,weatherlink.com 1.10,2013-09-27 08:17:00,
2013-09-27 03:32:00,51.2,50.0,30.12,NNE,19,0.0,0.0,94,0.00,,,0.00,weatherlink.com 1.10,2013-09-27 08:32:00,
2013-09-27 03:47:00,51.9,51.0,30.12,NNE,19,0.0,0.0,96,0.00,,,0.00,weatherlink.com 1.10,2013-09-27 08:47:00,
2013-09-27 04:03:00,53.0,52.0,30.12,NNE,19,0.0,0.0,96,0.00,,,0.00,weatherlink.com 1.10,2013-09-27 09:03:00,
2013-09-27 04:17:00,53.7,53.0,30.12,NNE,19,0.0,0.0,97,0.00,,,0.00,weatherlink.com 1.10,2013-09-27 09:17:00,
2013-09-27 04:32:00,54.2,53.0,30.12,NNE,19,0.0,0.0,97,0.00,,,0.00,weatherlink.com 1.10,2013-09-27 09:32:00,
2013-09-27 04:47:00,54.5,54.0,30.12,NNE,19,0.0,0.0,97,0.00,,,0.00,weatherlink.com 1.10,2013-09-27 09:47:00,
2013-09-27 05:02:00,54.5,54.0,30.13,NNE,19,0.0,0.0,97,0.00,,,0.00,weatherlink.com 1.10,2013-09-27 10:02:00,
2013-09-27 05:17:00,54.2,53.0,30.13,NNE,19,0.0,0.0,96,0.00,,,0.00,weatherlink.com 1.10,2013-09-27 10:17:00,
2013-09-27 05:32:00,53.7,53.0,30.13,NNE,19,0.0,0.0,96,0.00,,,0.00,weatherlink.com 1.10,2013-09-27 10:32:00,
2013-09-27 05:47:00,53.5,52.0,30.13,NNE,19,0.0,0.0,96,0.00,,,0.00,weatherlink.com 1.10,2013-09-27 10:47:00,
2013-09-27 06:02:00,53.7,53.0,30.14,NNE,19,0.0,0.0,97,0.00,,,0.00,weatherlink.com 1.10,2013-09-27 11:02:00,
2013-09-27 06:17:00,53.6,53.0,30.15,NNE,19,0.0,0.0,97,0.00,,,0.00,weatherlink.com 1.10,2013-09-27 11:17:00,
2013-09-27 06:32:00,53.5,53.0,30.15,NNE,19,0.0,0.0,97,0.00,,,0.00,weatherlink.com 1.10,2013-09-27 11:32:00,
2013-09-27 06:47:00,53.2,52.0,30.16,NNE,19,0.0,0.0,97,0.00,,,0.00,weatherlink.com 1.10,2013-09-27 11:47:00,
2013-09-27 07:02:00,52.6,52.0,30.16,NNE,19,0.0,0.0,96,0.00,,,0.00,weatherlink.com 1.10,2013-09-27 12:02:00,
2013-09-27 07:17:00,52.4,52.0,30.16,NNE,19,0.0,0.0,97,0.00,,,0.00,weatherlink.com 1.10,2013-09-27 12:17:00,
2013-09-27 07:32:00,52.6,52.0,30.16,NNE,19,0.0,0.0,97,0.00,,,0.00,weatherlink.com 1.10,2013-09-27 12:32:00,
2013-09-27 07:47:00,52.9,52.0,30.16,NNE,19,0.0,0.0,97,0.00,,,0.00,weatherlink.com 1.10,2013-09-27 12:47:00,
2013-09-27 08:02:00,53.2,52.0,30.16,NNE,19,0.0,0.0,97,0.00,,,0.00,weatherlink.com 1.10,2013-09-27 13:02:00,
2013-09-27 08:17:00,53.6,53.0,30.16,NNE,19,0.0,0.0,97,0.00,,,0.00,weatherlink.com 1.10,2013-09-27 13:17:00,
2013-09-27 08:32:00,54.4,54.0,30.16,NNE,19,0.0,0.0,97,0.00,,,0.00,weatherlink.com 1.10,2013-09-27 13:32:00,
2013-09-27 08:47:00,55.1,54.0,30.17,NNE,19,0.0,0.0,97,0.00,,,0.00,weatherlink.com 1.10,2013-09-27 13:47:00,
2013-09-27 09:02:00,55.6,55.0,30.17,NNE,19,0.0,1.0,97,0.00,,,0.00,weatherlink.com 1.10,2013-09-27 14:02:00,
2013-09-27 09:17:00,56.3,56.0,30.17,NNE,19,0.0,0.0,97,0.00,,,0.00,weatherlink.com 1.10,2013-09-27 14:17:00,
2013-09-27 09:32:00,57.8,56.0,30.17,NNE,19,0.0,2.0,93,0.00,,,0.00,weatherlink.com 1.10,2013-09-27 14:32:00,
2013-09-27 09:47:00,60.1,56.0,30.17,NNE,19,0.0,1.0,86,0.00,,,0.00,weatherlink.com 1.10,2013-09-27 14:47:00,
2013-09-27 10:03:00,61.5,55.0,30.17,NNE,19,0.0,1.0,79,0.00,,,0.00,weatherlink.com 1.10,2013-09-27 15:03:00,
2013-09-27 10:18:00,62.9,55.0,30.17,NNE,19,0.0,1.0,76,0.00,,,0.00,weatherlink.com 1.10,2013-09-27 15:18:00,
2013-09-27 10:33:00,64.3,55.0,30.16,NW,319,0.0,3.0,73,0.00,,,0.00,weatherlink.com 1.10,2013-09-27 15:33:00,
2013-09-27 10:48:00,65.8,56.0,30.16,NW,319,0.0,1.0,70,0.00,,,0.00,weatherlink.com 1.10,2013-09-27 15:48:00,
2013-09-27 11:03:00,67.0,56.0,30.16,NW,319,0.0,1.0,68,0.00,,,0.00,weatherlink.com 1.10,2013-09-27 16:03:00,
2013-09-27 11:18:00,68.1,58.0,30.16,NW,319,0.0,0.0,69,0.00,,,0.00,weatherlink.com 1.10,2013-09-27 16:18:00,
2013-09-27 11:33:00,69.1,57.0,30.16,NW,319,0.0,1.0,66,0.00,,,0.00,weatherlink.com 1.10,2013-09-27 16:33:00,
2013-09-27 11:48:00,70.0,56.0,30.16,NW,319,0.0,0.0,61,0.00,,,0.00,weatherlink.com 1.10,2013-09-27 16:48:00,
2013-09-27 12:03:00,70.8,58.0,30.15,North,355,0.0,1.0,64,0.00,,,0.00,weatherlink.com 1.10,2013-09-27 17:03:00,
2013-09-27 12:18:00,71.4,58.0,30.14,North,355,1.0,2.0,62,0.00,,,0.00,weatherlink.com 1.10,2013-09-27 17:18:00,
2013-09-27 12:33:00,72.1,57.0,30.14,South,188,0.0,2.0,59,0.00,,,0.00,weatherlink.com 1.10,2013-09-27 17:33:00,
2013-09-27 12:48:00,73.2,56.0,30.13,NW,319,0.0,0.0,56,0.00,,,0.00,weatherlink.com 1.10,2013-09-27 17:48:00,
2013-09-27 13:03:00,74.3,56.0,30.13,South,169,0.0,2.0,54,0.00,,,0.00,weatherlink.com 1.10,2013-09-27 18:03:00,
2013-09-27 13:18:00,74.7,57.0,30.12,SSE,168,0.0,1.0,54,0.00,,,0.00,weatherlink.com 1.10,2013-09-27 18:18:00,
2013-09-27 13:33:00,75.1,56.0,30.11,WSW,250,0.0,2.0,52,0.00,,,0.00,weatherlink.com 1.10,2013-09-27 18:33:00,
2013-09-27 13:48:00,75.6,56.0,30.11,WSW,242,0.0,3.0,50,0.00,,,0.00,weatherlink.com 1.10,2013-09-27 18:48:00,
2013-09-27 14:03:00,76.1,55.0,30.10,WSW,243,0.0,1.0,49,0.00,,,0.00,weatherlink.com 1.10,2013-09-27 19:03:00,
2013-09-27 14:33:00,76.6,56.0,30.09,South,180,0.0,2.0,49,0.00,,,0.00,weatherlink.com 1.10,2013-09-27 19:33:00,
2013-09-27 14:48:00,76.3,57.0,30.09,SSW,200,0.0,2.0,52,0.00,,,0.00,weatherlink.com 1.10,2013-09-27 19:48:00,
2013-09-27 15:03:00,76.0,58.0,30.09,South,190,0.0,5.0,54,0.00,,,0.00,weatherlink.com 1.10,2013-09-27 20:03:00,
2013-09-27 15:19:00,76.1,58.0,30.08,ESE,120,0.0,2.0,53,0.00,,,0.00,weatherlink.com 1.10,2013-09-27 20:19:00,
2013-09-27 15:34:00,75.8,57.0,30.08,ESE,120,0.0,1.0,52,0.00,,,0.00,weatherlink.com 1.10,2013-09-27 20:34:00,
2013-09-27 15:49:00,75.7,56.0,30.08,SE,142,0.0,2.0,50,0.00,,,0.00,weatherlink.com 1.10,2013-09-27 20:49:00,
2013-09-27 16:04:00,75.2,56.0,30.08,SSE,153,0.0,1.0,51,0.00,,,0.00,weatherlink.com 1.10,2013-09-27 21:04:00,
2013-09-27 16:19:00,74.6,56.0,30.07,WSW,246,0.0,2.0,53,0.00,,,0.00,weatherlink.com 1.10,2013-09-27 21:19:00,
2013-09-27 16:34:00,73.9,55.0,30.07,SSW,207,0.0,2.0,52,0.00,,,0.00,weatherlink.com 1.10,2013-09-27 21:34:00,
2013-09-27 16:49:00,73.5,55.0,30.07,South,179,0.0,2.0,52,0.00,,,0.00,weatherlink.com 1.10,2013-09-27 21:49:00,
2013-09-27 17:04:00,72.7,54.0,30.07,South,179,0.0,1.0,52,0.00,,,0.00,weatherlink.com 1.10,2013-09-27 22:04:00,
2013-09-27 17:19:00,71.9,54.0,30.07,South,179,0.0,1.0,54,0.00,,,0.00,weatherlink.com 1.10,2013-09-27 22:19:00,
2013-09-27 17:34:00,70.9,54.0,30.07,South,179,0.0,1.0,56,0.00,,,0.00,weatherlink.com 1.10,2013-09-27 22:34:00,
2013-09-27 18:04:00,69.3,54.0,30.08,SSW,197,0.0,0.0,59,0.00,,,0.00,weatherlink.com 1.10,2013-09-27 23:04:00,
2013-09-27 18:19:00,68.5,54.0,30.07,SSW,197,0.0,1.0,61,0.00,,,0.00,weatherlink.com 1.10,2013-09-27 23:19:00,
2013-09-27 18:34:00,67.5,54.0,30.07,SSW,197,0.0,0.0,63,0.00,,,0.00,weatherlink.com 1.10,2013-09-27 23:34:00,
2013-09-27 18:49:00,66.3,54.0,30.07,SSW,197,0.0,0.0,64,0.00,,,0.00,weatherlink.com 1.10,2013-09-27 23:49:00,
2013-09-27 19:04:00,65.3,54.0,30.07,SSW,197,0.0,0.0,66,0.00,,,0.00,weatherlink.com 1.10,2013-09-28 00:04:00,
2013-09-27 19:19:00,64.1,53.0,30.07,SSW,197,0.0,0.0,68,0.00,,,0.00,weatherlink.com 1.10,2013-09-28 00:19:00,
2013-09-27 19:34:00,63.3,53.0,30.07,SSW,197,0.0,0.0,70,0.00,,,0.00,weatherlink.com 1.10,2013-09-28 00:34:00,
2013-09-27 19:49:00,62.5,53.0,30.07,SSW,197,0.0,0.0,72,0.00,,,0.00,weatherlink.com 1.10,2013-09-28 00:49:00,
2013-09-27 20:04:00,61.8,53.0,30.07,SSW,197,0.0,0.0,73,0.00,,,0.00,weatherlink.com 1.10,2013-09-28 01:04:00,
2013-09-27 20:19:00,61.2,53.0,30.07,SSW,197,0.0,0.0,74,0.00,,,0.00,weatherlink.com 1.10,2013-09-28 01:19:00,
2013-09-27 20:34:00,60.4,52.0,30.08,SSW,197,0.0,0.0,75,0.00,,,0.00,weatherlink.com 1.10,2013-09-28 01:34:00,
2013-09-27 20:49:00,59.5,52.0,30.08,SSW,197,0.0,0.0,77,0.00,,,0.00,weatherlink.com 1.10,2013-09-28 01:49:00,
2013-09-27 21:04:00,58.8,52.0,30.08,SSW,197,0.0,0.0,79,0.00,,,0.00,weatherlink.com 1.10,2013-09-28 02:04:00,
2013-09-27 21:19:00,58.2,52.0,30.09,SSW,197,0.0,0.0,80,0.00,,,0.00,weatherlink.com 1.10,2013-09-28 02:19:00,
2013-09-27 21:34:00,57.5,52.0,30.09,SSW,197,0.0,0.0,81,0.00,,,0.00,weatherlink.com 1.10,2013-09-28 02:34:00,
2013-09-27 21:49:00,56.8,51.0,30.08,SSW,197,0.0,0.0,82,0.00,,,0.00,weatherlink.com 1.10,2013-09-28 02:49:00,
2013-09-27 22:04:00,56.4,51.0,30.08,SSW,197,0.0,0.0,83,0.00,,,0.00,weatherlink.com 1.10,2013-09-28 03:04:00,
2013-09-27 22:19:00,56.2,52.0,30.09,SSW,197,0.0,0.0,85,0.00,,,0.00,weatherlink.com 1.10,2013-09-28 03:19:00,
2013-09-27 22:34:00,56.3,52.0,30.08,SSW,197,0.0,0.0,86,0.00,,,0.00,weatherlink.com 1.10,2013-09-28 03:34:00,
2013-09-27 22:49:00,56.4,52.0,30.08,SSW,197,0.0,0.0,86,0.00,,,0.00,weatherlink.com 1.10,2013-09-28 03:49:00,
2013-09-27 23:04:00,56.6,53.0,30.08,SSW,197,0.0,0.0,87,0.00,,,0.00,weatherlink.com 1.10,2013-09-28 04:04:00,
2013-09-27 23:19:00,56.5,53.0,30.08,SSW,197,0.0,0.0,87,0.00,,,0.00,weatherlink.com 1.10,2013-09-28 04:19:00,
2013-09-27 23:34:00,56.1,52.0,30.08,SSW,197,0.0,0.0,87,0.00,,,0.00,weatherlink.com 1.10,2013-09-28 04:34:00,
2013-09-27 23:49:00,55.7,52.0,30.07,SSW,197,0.0,0.0,88,0.00,,,0.00,weatherlink.com 1.10,2013-09-28 04:49:00,